sensor_id;sensor_type;location;lat;lon;timestamp;P1;durP1;ratioP1;P2;durP2;ratioP2
20318;SDS011;10317;47.254;11.314;2023-09-08T00:01:37;11.00;;;6.13;;
20318;SDS011;10317;47.254;11.314;2023-09-08T00:04:03;8.18;;;5.57;;
20318;SDS011;10317;47.254;11.314;2023-09-08T00:06:29;6.72;;;5.35;;
20318;SDS011;10317;47.254;11.314;2023-09-08T00:08:55;6.50;;;5.68;;
20318;SDS011;10317;47.254;11.314;2023-09-08T00:11:20;10.65;;;5.53;;
20318;SDS011;10317;47.254;11.314;2023-09-08T00:13:46;9.35;;;6.10;;
20318;SDS011;10317;47.254;11.314;2023-09-08T00:16:11;7.82;;;5.82;;
20318;SDS011;10317;47.254;11.314;2023-09-08T00:18:37;7.22;;;6.03;;
20318;SDS011;10317;47.254;11.314;2023-09-08T00:21:03;9.00;;;5.72;;
20318;SDS011;10317;47.254;11.314;2023-09-08T00:23:29;8.63;;;5.93;;
20318;SDS011;10317;47.254;11.314;2023-09-08T00:25:54;8.05;;;5.75;;
20318;SDS011;10317;47.254;11.314;2023-09-08T00:28:20;6.55;;;5.57;;
20318;SDS011;10317;47.254;11.314;2023-09-08T00:30:45;7.97;;;6.05;;
20318;SDS011;10317;47.254;11.314;2023-09-08T00:33:11;7.13;;;5.50;;
20318;SDS011;10317;47.254;11.314;2023-09-08T00:35:39;8.35;;;6.10;;
20318;SDS011;10317;47.254;11.314;2023-09-08T00:38:08;9.38;;;6.70;;
20318;SDS011;10317;47.254;11.314;2023-09-08T00:40:34;7.95;;;5.45;;
20318;SDS011;10317;47.254;11.314;2023-09-08T00:43:00;7.68;;;5.90;;
20318;SDS011;10317;47.254;11.314;2023-09-08T00:45:26;7.72;;;6.13;;
20318;SDS011;10317;47.254;11.314;2023-09-08T00:47:54;7.22;;;5.30;;
20318;SDS011;10317;47.254;11.314;2023-09-08T00:50:20;8.25;;;6.15;;
20318;SDS011;10317;47.254;11.314;2023-09-08T00:52:46;10.57;;;6.20;;
20318;SDS011;10317;47.254;11.314;2023-09-08T00:55:12;10.65;;;6.18;;
20318;SDS011;10317;47.254;11.314;2023-09-08T00:57:38;7.07;;;6.00;;
20318;SDS011;10317;47.254;11.314;2023-09-08T01:00:03;8.43;;;5.22;;
20318;SDS011;10317;47.254;11.314;2023-09-08T01:02:31;6.32;;;5.43;;
20318;SDS011;10317;47.254;11.314;2023-09-08T01:04:57;9.30;;;6.00;;
20318;SDS011;10317;47.254;11.314;2023-09-08T01:07:24;7.85;;;5.72;;
20318;SDS011;10317;47.254;11.314;2023-09-08T01:09:51;8.05;;;5.78;;
20318;SDS011;10317;47.254;11.314;2023-09-08T01:12:17;6.75;;;5.53;;
20318;SDS011;10317;47.254;11.314;2023-09-08T01:14:44;6.25;;;5.60;;
20318;SDS011;10317;47.254;11.314;2023-09-08T01:17:10;7.68;;;5.88;;
20318;SDS011;10317;47.254;11.314;2023-09-08T01:19:37;6.50;;;5.82;;
20318;SDS011;10317;47.254;11.314;2023-09-08T01:27:29;9.25;;;5.72;;
20318;SDS011;10317;47.254;11.314;2023-09-08T01:29:58;10.23;;;5.28;;
20318;SDS011;10317;47.254;11.314;2023-09-08T01:32:25;6.25;;;5.47;;
20318;SDS011;10317;47.254;11.314;2023-09-08T01:34:51;7.60;;;5.78;;
20318;SDS011;10317;47.254;11.314;2023-09-08T01:37:17;8.73;;;6.10;;
20318;SDS011;10317;47.254;11.314;2023-09-08T01:39:43;10.18;;;5.38;;
20318;SDS011;10317;47.254;11.314;2023-09-08T01:42:08;6.57;;;5.18;;
20318;SDS011;10317;47.254;11.314;2023-09-08T01:44:34;6.45;;;5.82;;
20318;SDS011;10317;47.254;11.314;2023-09-08T01:47:01;8.70;;;6.05;;
20318;SDS011;10317;47.254;11.314;2023-09-08T01:49:26;8.30;;;5.75;;
20318;SDS011;10317;47.254;11.314;2023-09-08T01:51:52;8.27;;;6.13;;
20318;SDS011;10317;47.254;11.314;2023-09-08T01:54:18;6.90;;;6.20;;
20318;SDS011;10317;47.254;11.314;2023-09-08T01:56:43;9.13;;;6.03;;
20318;SDS011;10317;47.254;11.314;2023-09-08T01:59:09;9.60;;;6.45;;
20318;SDS011;10317;47.254;11.314;2023-09-08T02:01:34;10.77;;;5.93;;
20318;SDS011;10317;47.254;11.314;2023-09-08T02:04:01;6.70;;;5.40;;
20318;SDS011;10317;47.254;11.314;2023-09-08T02:06:27;7.22;;;5.82;;
20318;SDS011;10317;47.254;11.314;2023-09-08T02:08:53;7.78;;;5.95;;
20318;SDS011;10317;47.254;11.314;2023-09-08T02:11:18;7.45;;;5.55;;
20318;SDS011;10317;47.254;11.314;2023-09-08T02:13:44;8.90;;;6.00;;
20318;SDS011;10317;47.254;11.314;2023-09-08T02:16:14;7.93;;;5.95;;
20318;SDS011;10317;47.254;11.314;2023-09-08T02:18:43;6.65;;;5.88;;
20318;SDS011;10317;47.254;11.314;2023-09-08T02:21:09;9.57;;;5.80;;
20318;SDS011;10317;47.254;11.314;2023-09-08T02:23:35;8.40;;;6.03;;
20318;SDS011;10317;47.254;11.314;2023-09-08T02:26:01;8.98;;;6.35;;
20318;SDS011;10317;47.254;11.314;2023-09-08T02:28:27;5.35;;;4.85;;
20318;SDS011;10317;47.254;11.314;2023-09-08T02:30:53;8.57;;;5.70;;
20318;SDS011;10317;47.254;11.314;2023-09-08T02:33:19;8.45;;;5.65;;
20318;SDS011;10317;47.254;11.314;2023-09-08T02:35:44;7.90;;;6.57;;
20318;SDS011;10317;47.254;11.314;2023-09-08T02:38:10;8.90;;;6.28;;
20318;SDS011;10317;47.254;11.314;2023-09-08T02:40:36;7.18;;;6.22;;
20318;SDS011;10317;47.254;11.314;2023-09-08T02:43:02;7.47;;;5.63;;
20318;SDS011;10317;47.254;11.314;2023-09-08T02:45:28;8.35;;;6.13;;
20318;SDS011;10317;47.254;11.314;2023-09-08T02:47:53;8.05;;;5.95;;
20318;SDS011;10317;47.254;11.314;2023-09-08T02:50:19;11.75;;;6.22;;
20318;SDS011;10317;47.254;11.314;2023-09-08T02:52:45;10.23;;;6.18;;
20318;SDS011;10317;47.254;11.314;2023-09-08T02:55:11;8.15;;;5.95;;
20318;SDS011;10317;47.254;11.314;2023-09-08T02:57:38;7.35;;;5.63;;
20318;SDS011;10317;47.254;11.314;2023-09-08T03:00:04;6.63;;;5.75;;
20318;SDS011;10317;47.254;11.314;2023-09-08T03:02:31;9.43;;;5.38;;
20318;SDS011;10317;47.254;11.314;2023-09-08T03:04:57;6.70;;;5.63;;
20318;SDS011;10317;47.254;11.314;2023-09-08T03:07:22;6.88;;;6.05;;
20318;SDS011;10317;47.254;11.314;2023-09-08T03:09:48;7.88;;;6.32;;
20318;SDS011;10317;47.254;11.314;2023-09-08T03:12:14;8.35;;;6.18;;
20318;SDS011;10317;47.254;11.314;2023-09-08T03:14:39;10.43;;;6.18;;
20318;SDS011;10317;47.254;11.314;2023-09-08T03:17:05;9.38;;;6.05;;
20318;SDS011;10317;47.254;11.314;2023-09-08T03:19:31;14.00;;;6.55;;
20318;SDS011;10317;47.254;11.314;2023-09-08T03:21:56;10.10;;;6.57;;
20318;SDS011;10317;47.254;11.314;2023-09-08T03:24:22;7.43;;;5.72;;
20318;SDS011;10317;47.254;11.314;2023-09-08T03:26:48;6.70;;;5.45;;
20318;SDS011;10317;47.254;11.314;2023-09-08T03:29:13;6.38;;;5.45;;
20318;SDS011;10317;47.254;11.314;2023-09-08T03:31:39;8.15;;;6.00;;
20318;SDS011;10317;47.254;11.314;2023-09-08T03:34:05;8.13;;;6.20;;
20318;SDS011;10317;47.254;11.314;2023-09-08T03:36:31;6.50;;;5.50;;
20318;SDS011;10317;47.254;11.314;2023-09-08T03:39:00;8.88;;;6.22;;
20318;SDS011;10317;47.254;11.314;2023-09-08T03:41:26;8.98;;;5.97;;
20318;SDS011;10317;47.254;11.314;2023-09-08T03:43:52;8.77;;;6.43;;
20318;SDS011;10317;47.254;11.314;2023-09-08T03:46:18;7.30;;;5.65;;
20318;SDS011;10317;47.254;11.314;2023-09-08T03:48:43;8.00;;;5.72;;
20318;SDS011;10317;47.254;11.314;2023-09-08T03:51:09;9.82;;;5.72;;
20318;SDS011;10317;47.254;11.314;2023-09-08T03:53:35;8.43;;;5.93;;
20318;SDS011;10317;47.254;11.314;2023-09-08T03:56:00;6.85;;;5.63;;
20318;SDS011;10317;47.254;11.314;2023-09-08T03:58:26;8.65;;;6.47;;
20318;SDS011;10317;47.254;11.314;2023-09-08T04:00:51;8.32;;;5.78;;
20318;SDS011;10317;47.254;11.314;2023-09-08T04:03:17;8.82;;;6.30;;
20318;SDS011;10317;47.254;11.314;2023-09-08T04:05:43;6.93;;;5.45;;
20318;SDS011;10317;47.254;11.314;2023-09-08T04:08:08;7.75;;;5.57;;
20318;SDS011;10317;47.254;11.314;2023-09-08T04:10:34;8.55;;;6.35;;
20318;SDS011;10317;47.254;11.314;2023-09-08T04:13:00;7.50;;;5.88;;
20318;SDS011;10317;47.254;11.314;2023-09-08T04:15:25;7.55;;;5.75;;
20318;SDS011;10317;47.254;11.314;2023-09-08T04:17:51;7.07;;;5.88;;
20318;SDS011;10317;47.254;11.314;2023-09-08T04:20:17;9.45;;;6.68;;
20318;SDS011;10317;47.254;11.314;2023-09-08T04:22:42;10.63;;;6.97;;
20318;SDS011;10317;47.254;11.314;2023-09-08T04:25:09;10.93;;;6.30;;
20318;SDS011;10317;47.254;11.314;2023-09-08T04:27:35;7.65;;;6.30;;
20318;SDS011;10317;47.254;11.314;2023-09-08T04:30:02;9.07;;;6.78;;
20318;SDS011;10317;47.254;11.314;2023-09-08T04:32:29;9.63;;;6.97;;
20318;SDS011;10317;47.254;11.314;2023-09-08T04:34:54;8.82;;;6.72;;
20318;SDS011;10317;47.254;11.314;2023-09-08T04:37:20;8.38;;;6.15;;
20318;SDS011;10317;47.254;11.314;2023-09-08T04:39:46;8.15;;;6.43;;
20318;SDS011;10317;47.254;11.314;2023-09-08T04:42:12;6.85;;;6.00;;
20318;SDS011;10317;47.254;11.314;2023-09-08T04:44:38;11.70;;;6.78;;
20318;SDS011;10317;47.254;11.314;2023-09-08T04:47:04;7.25;;;6.55;;
20318;SDS011;10317;47.254;11.314;2023-09-08T04:49:29;10.18;;;6.22;;
20318;SDS011;10317;47.254;11.314;2023-09-08T04:51:55;6.63;;;5.93;;
20318;SDS011;10317;47.254;11.314;2023-09-08T04:54:21;8.50;;;6.75;;
20318;SDS011;10317;47.254;11.314;2023-09-08T04:56:49;6.90;;;5.25;;
20318;SDS011;10317;47.254;11.314;2023-09-08T04:59:15;10.48;;;6.40;;
20318;SDS011;10317;47.254;11.314;2023-09-08T05:01:41;9.57;;;7.05;;
20318;SDS011;10317;47.254;11.314;2023-09-08T05:04:08;9.18;;;6.05;;
20318;SDS011;10317;47.254;11.314;2023-09-08T05:06:34;10.45;;;6.90;;
20318;SDS011;10317;47.254;11.314;2023-09-08T05:09:00;6.93;;;6.10;;
20318;SDS011;10317;47.254;11.314;2023-09-08T05:11:25;7.50;;;5.85;;
20318;SDS011;10317;47.254;11.314;2023-09-08T05:13:52;8.38;;;6.43;;
20318;SDS011;10317;47.254;11.314;2023-09-08T05:16:18;8.00;;;6.82;;
20318;SDS011;10317;47.254;11.314;2023-09-08T05:18:50;9.77;;;6.38;;
20318;SDS011;10317;47.254;11.314;2023-09-08T05:21:16;9.77;;;6.65;;
20318;SDS011;10317;47.254;11.314;2023-09-08T05:23:42;8.80;;;6.20;;
20318;SDS011;10317;47.254;11.314;2023-09-08T05:26:07;11.20;;;6.55;;
20318;SDS011;10317;47.254;11.314;2023-09-08T05:28:33;7.38;;;5.85;;
20318;SDS011;10317;47.254;11.314;2023-09-08T05:30:58;8.70;;;6.40;;
20318;SDS011;10317;47.254;11.314;2023-09-08T05:33:24;9.40;;;5.38;;
20318;SDS011;10317;47.254;11.314;2023-09-08T05:35:50;6.32;;;5.50;;
20318;SDS011;10317;47.254;11.314;2023-09-08T05:38:16;8.20;;;6.82;;
20318;SDS011;10317;47.254;11.314;2023-09-08T05:40:41;8.60;;;7.15;;
20318;SDS011;10317;47.254;11.314;2023-09-08T05:43:08;6.93;;;5.38;;
20318;SDS011;10317;47.254;11.314;2023-09-08T05:45:34;10.13;;;6.60;;
20318;SDS011;10317;47.254;11.314;2023-09-08T05:47:59;9.02;;;6.45;;
20318;SDS011;10317;47.254;11.314;2023-09-08T05:50:25;9.65;;;6.15;;
20318;SDS011;10317;47.254;11.314;2023-09-08T05:52:51;7.18;;;6.47;;
20318;SDS011;10317;47.254;11.314;2023-09-08T05:55:17;11.35;;;6.57;;
20318;SDS011;10317;47.254;11.314;2023-09-08T05:57:43;8.23;;;6.15;;
20318;SDS011;10317;47.254;11.314;2023-09-08T06:00:08;9.80;;;6.68;;
20318;SDS011;10317;47.254;11.314;2023-09-08T06:02:34;10.35;;;6.32;;
20318;SDS011;10317;47.254;11.314;2023-09-08T06:05:00;13.98;;;7.50;;
20318;SDS011;10317;47.254;11.314;2023-09-08T06:07:26;10.43;;;7.25;;
20318;SDS011;10317;47.254;11.314;2023-09-08T06:09:51;9.55;;;7.22;;
20318;SDS011;10317;47.254;11.314;2023-09-08T06:12:17;10.23;;;7.40;;
20318;SDS011;10317;47.254;11.314;2023-09-08T06:14:44;8.27;;;6.72;;
20318;SDS011;10317;47.254;11.314;2023-09-08T06:17:09;9.93;;;7.28;;
20318;SDS011;10317;47.254;11.314;2023-09-08T06:19:35;9.18;;;7.30;;
20318;SDS011;10317;47.254;11.314;2023-09-08T06:22:01;7.90;;;7.10;;
20318;SDS011;10317;47.254;11.314;2023-09-08T06:24:26;12.80;;;7.60;;
20318;SDS011;10317;47.254;11.314;2023-09-08T06:26:52;10.32;;;8.00;;
20318;SDS011;10317;47.254;11.314;2023-09-08T06:29:18;12.30;;;8.52;;
20318;SDS011;10317;47.254;11.314;2023-09-08T06:31:44;10.98;;;8.27;;
20318;SDS011;10317;47.254;11.314;2023-09-08T06:34:10;7.85;;;7.03;;
20318;SDS011;10317;47.254;11.314;2023-09-08T06:36:35;11.45;;;7.22;;
20318;SDS011;10317;47.254;11.314;2023-09-08T06:39:01;10.77;;;7.72;;
20318;SDS011;10317;47.254;11.314;2023-09-08T06:41:27;10.35;;;7.63;;
20318;SDS011;10317;47.254;11.314;2023-09-08T06:43:53;10.98;;;7.72;;
20318;SDS011;10317;47.254;11.314;2023-09-08T06:46:19;8.57;;;7.38;;
20318;SDS011;10317;47.254;11.314;2023-09-08T06:48:45;9.45;;;7.25;;
20318;SDS011;10317;47.254;11.314;2023-09-08T06:51:11;11.00;;;7.15;;
20318;SDS011;10317;47.254;11.314;2023-09-08T06:53:36;17.88;;;7.78;;
20318;SDS011;10317;47.254;11.314;2023-09-08T06:56:02;8.50;;;6.97;;
20318;SDS011;10317;47.254;11.314;2023-09-08T06:58:28;9.50;;;7.32;;
20318;SDS011;10317;47.254;11.314;2023-09-08T07:00:54;11.07;;;8.00;;
20318;SDS011;10317;47.254;11.314;2023-09-08T07:03:22;9.40;;;7.22;;
20318;SDS011;10317;47.254;11.314;2023-09-08T07:05:49;7.93;;;6.55;;
20318;SDS011;10317;47.254;11.314;2023-09-08T07:08:15;8.68;;;7.80;;
20318;SDS011;10317;47.254;11.314;2023-09-08T07:10:41;8.43;;;6.85;;
20318;SDS011;10317;47.254;11.314;2023-09-08T07:13:06;13.85;;;9.73;;
20318;SDS011;10317;47.254;11.314;2023-09-08T07:15:32;13.23;;;9.35;;
20318;SDS011;10317;47.254;11.314;2023-09-08T07:17:58;15.75;;;10.23;;
20318;SDS011;10317;47.254;11.314;2023-09-08T07:20:23;14.98;;;10.13;;
20318;SDS011;10317;47.254;11.314;2023-09-08T07:22:49;10.93;;;8.13;;
20318;SDS011;10317;47.254;11.314;2023-09-08T07:25:15;17.90;;;12.88;;
20318;SDS011;10317;47.254;11.314;2023-09-08T07:27:40;13.95;;;10.15;;
20318;SDS011;10317;47.254;11.314;2023-09-08T07:30:06;12.50;;;9.95;;
20318;SDS011;10317;47.254;11.314;2023-09-08T07:32:32;18.15;;;11.85;;
20318;SDS011;10317;47.254;11.314;2023-09-08T07:34:58;11.75;;;8.80;;
20318;SDS011;10317;47.254;11.314;2023-09-08T07:37:23;16.50;;;9.23;;
20318;SDS011;10317;47.254;11.314;2023-09-08T07:39:50;11.07;;;8.52;;
20318;SDS011;10317;47.254;11.314;2023-09-08T07:42:16;20.60;;;9.43;;
20318;SDS011;10317;47.254;11.314;2023-09-08T07:44:42;14.00;;;9.55;;
20318;SDS011;10317;47.254;11.314;2023-09-08T07:47:08;13.30;;;9.05;;
20318;SDS011;10317;47.254;11.314;2023-09-08T07:49:34;20.45;;;10.73;;
20318;SDS011;10317;47.254;11.314;2023-09-08T07:52:00;26.60;;;14.30;;
20318;SDS011;10317;47.254;11.314;2023-09-08T07:54:25;27.50;;;15.25;;
20318;SDS011;10317;47.254;11.314;2023-09-08T07:56:51;24.15;;;14.60;;
20318;SDS011;10317;47.254;11.314;2023-09-08T07:59:16;24.77;;;14.60;;
20318;SDS011;10317;47.254;11.314;2023-09-08T08:01:42;29.40;;;16.50;;
20318;SDS011;10317;47.254;11.314;2023-09-08T08:04:08;29.58;;;17.58;;
20318;SDS011;10317;47.254;11.314;2023-09-08T08:06:34;32.55;;;18.80;;
20318;SDS011;10317;47.254;11.314;2023-09-08T08:09:00;32.92;;;18.38;;
20318;SDS011;10317;47.254;11.314;2023-09-08T08:11:26;34.58;;;19.15;;
20318;SDS011;10317;47.254;11.314;2023-09-08T08:13:53;43.28;;;20.13;;
20318;SDS011;10317;47.254;11.314;2023-09-08T08:16:18;31.45;;;19.23;;
20318;SDS011;10317;47.254;11.314;2023-09-08T08:18:46;27.67;;;17.88;;
20318;SDS011;10317;47.254;11.314;2023-09-08T08:21:12;29.63;;;17.80;;
20318;SDS011;10317;47.254;11.314;2023-09-08T08:23:38;28.08;;;16.10;;
20318;SDS011;10317;47.254;11.314;2023-09-08T08:26:03;28.55;;;16.60;;
20318;SDS011;10317;47.254;11.314;2023-09-08T08:28:29;24.55;;;16.13;;
20318;SDS011;10317;47.254;11.314;2023-09-08T08:30:55;28.70;;;15.90;;
20318;SDS011;10317;47.254;11.314;2023-09-08T08:33:21;19.95;;;12.95;;
20318;SDS011;10317;47.254;11.314;2023-09-08T08:35:50;23.90;;;13.93;;
20318;SDS011;10317;47.254;11.314;2023-09-08T08:38:17;23.52;;;13.45;;
20318;SDS011;10317;47.254;11.314;2023-09-08T08:40:43;25.85;;;15.07;;
20318;SDS011;10317;47.254;11.314;2023-09-08T08:43:08;20.58;;;13.88;;
20318;SDS011;10317;47.254;11.314;2023-09-08T08:45:34;19.48;;;13.90;;
20318;SDS011;10317;47.254;11.314;2023-09-08T08:48:02;17.92;;;12.90;;
20318;SDS011;10317;47.254;11.314;2023-09-08T08:50:30;19.55;;;13.23;;
20318;SDS011;10317;47.254;11.314;2023-09-08T08:53:00;19.08;;;12.20;;
20318;SDS011;10317;47.254;11.314;2023-09-08T08:55:29;18.45;;;11.48;;
20318;SDS011;10317;47.254;11.314;2023-09-08T08:57:58;20.13;;;12.23;;
20318;SDS011;10317;47.254;11.314;2023-09-08T09:00:29;16.58;;;11.15;;
20318;SDS011;10317;47.254;11.314;2023-09-08T09:02:54;17.80;;;11.13;;
20318;SDS011;10317;47.254;11.314;2023-09-08T09:05:22;14.63;;;10.68;;
20318;SDS011;10317;47.254;11.314;2023-09-08T09:07:49;13.35;;;10.13;;
20318;SDS011;10317;47.254;11.314;2023-09-08T09:10:16;17.35;;;11.88;;
20318;SDS011;10317;47.254;11.314;2023-09-08T09:12:42;17.83;;;11.05;;
20318;SDS011;10317;47.254;11.314;2023-09-08T09:15:07;20.70;;;10.52;;
20318;SDS011;10317;47.254;11.314;2023-09-08T09:17:33;18.70;;;10.35;;
20318;SDS011;10317;47.254;11.314;2023-09-08T09:20:11;13.13;;;9.60;;
20318;SDS011;10317;47.254;11.314;2023-09-08T09:22:42;14.23;;;9.18;;
20318;SDS011;10317;47.254;11.314;2023-09-08T09:25:08;13.77;;;9.70;;
20318;SDS011;10317;47.254;11.314;2023-09-08T09:27:35;14.88;;;10.20;;
20318;SDS011;10317;47.254;11.314;2023-09-08T09:30:04;15.93;;;9.23;;
20318;SDS011;10317;47.254;11.314;2023-09-08T09:32:30;13.38;;;9.32;;
20318;SDS011;10317;47.254;11.314;2023-09-08T09:34:56;12.45;;;8.85;;
20318;SDS011;10317;47.254;11.314;2023-09-08T09:37:23;12.52;;;8.77;;
20318;SDS011;10317;47.254;11.314;2023-09-08T09:39:49;12.25;;;8.93;;
20318;SDS011;10317;47.254;11.314;2023-09-08T09:42:15;10.50;;;8.63;;
20318;SDS011;10317;47.254;11.314;2023-09-08T09:44:42;9.88;;;8.18;;
20318;SDS011;10317;47.254;11.314;2023-09-08T09:47:07;10.43;;;7.75;;
20318;SDS011;10317;47.254;11.314;2023-09-08T09:49:41;12.98;;;7.82;;
20318;SDS011;10317;47.254;11.314;2023-09-08T09:52:08;11.82;;;7.88;;
20318;SDS011;10317;47.254;11.314;2023-09-08T09:54:33;9.88;;;8.07;;
20318;SDS011;10317;47.254;11.314;2023-09-08T09:56:59;7.93;;;7.00;;
20318;SDS011;10317;47.254;11.314;2023-09-08T09:59:26;8.85;;;6.43;;
20318;SDS011;10317;47.254;11.314;2023-09-08T10:01:52;9.90;;;7.95;;
20318;SDS011;10317;47.254;11.314;2023-09-08T10:04:18;10.70;;;7.30;;
20318;SDS011;10317;47.254;11.314;2023-09-08T10:06:45;9.60;;;7.22;;
20318;SDS011;10317;47.254;11.314;2023-09-08T10:09:11;11.00;;;7.80;;
20318;SDS011;10317;47.254;11.314;2023-09-08T10:11:47;12.63;;;7.70;;
20318;SDS011;10317;47.254;11.314;2023-09-08T10:14:14;9.93;;;7.38;;
20318;SDS011;10317;47.254;11.314;2023-09-08T10:16:42;15.93;;;8.57;;
20318;SDS011;10317;47.254;11.314;2023-09-08T10:19:10;9.82;;;7.80;;
20318;SDS011;10317;47.254;11.314;2023-09-08T10:21:39;13.15;;;8.57;;
20318;SDS011;10317;47.254;11.314;2023-09-08T10:24:09;10.88;;;7.72;;
20318;SDS011;10317;47.254;11.314;2023-09-08T10:27:07;11.10;;;8.10;;
20318;SDS011;10317;47.254;11.314;2023-09-08T10:29:34;12.30;;;8.68;;
20318;SDS011;10317;47.254;11.314;2023-09-08T10:32:01;9.27;;;7.68;;
20318;SDS011;10317;47.254;11.314;2023-09-08T10:34:27;8.43;;;7.60;;
20318;SDS011;10317;47.254;11.314;2023-09-08T10:36:55;9.35;;;7.70;;
20318;SDS011;10317;47.254;11.314;2023-09-08T10:39:30;10.52;;;8.00;;
20318;SDS011;10317;47.254;11.314;2023-09-08T10:47:13;8.57;;;7.60;;
20318;SDS011;10317;47.254;11.314;2023-09-08T10:49:39;9.73;;;7.50;;
20318;SDS011;10317;47.254;11.314;2023-09-08T10:52:09;12.60;;;8.20;;
20318;SDS011;10317;47.254;11.314;2023-09-08T10:57:15;13.82;;;8.00;;
20318;SDS011;10317;47.254;11.314;2023-09-08T11:00:23;9.77;;;7.93;;
20318;SDS011;10317;47.254;11.314;2023-09-08T11:05:08;8.73;;;7.82;;
20318;SDS011;10317;47.254;11.314;2023-09-08T11:07:38;9.02;;;8.13;;
20318;SDS011;10317;47.254;11.314;2023-09-08T11:10:04;8.23;;;7.43;;
20318;SDS011;10317;47.254;11.314;2023-09-08T11:12:31;9.35;;;8.27;;
20318;SDS011;10317;47.254;11.314;2023-09-08T11:14:57;10.55;;;8.73;;
20318;SDS011;10317;47.254;11.314;2023-09-08T11:17:26;11.63;;;8.48;;
20318;SDS011;10317;47.254;11.314;2023-09-08T11:19:53;10.23;;;8.82;;
20318;SDS011;10317;47.254;11.314;2023-09-08T11:22:21;8.93;;;8.10;;
20318;SDS011;10317;47.254;11.314;2023-09-08T11:24:55;9.88;;;7.63;;
20318;SDS011;10317;47.254;11.314;2023-09-08T11:27:25;11.93;;;8.02;;
20318;SDS011;10317;47.254;11.314;2023-09-08T11:29:52;10.82;;;7.95;;
20318;SDS011;10317;47.254;11.314;2023-09-08T11:32:18;8.40;;;7.45;;
20318;SDS011;10317;47.254;11.314;2023-09-08T11:34:44;9.32;;;8.35;;
20318;SDS011;10317;47.254;11.314;2023-09-08T11:37:10;9.15;;;8.05;;
20318;SDS011;10317;47.254;11.314;2023-09-08T11:39:41;9.23;;;7.20;;
20318;SDS011;10317;47.254;11.314;2023-09-08T11:42:11;8.90;;;7.97;;
20318;SDS011;10317;47.254;11.314;2023-09-08T11:44:38;8.57;;;7.00;;
20318;SDS011;10317;47.254;11.314;2023-09-08T11:47:06;7.47;;;6.78;;
20318;SDS011;10317;47.254;11.314;2023-09-08T11:49:37;8.30;;;7.47;;
20318;SDS011;10317;47.254;11.314;2023-09-08T11:52:06;8.50;;;7.10;;
20318;SDS011;10317;47.254;11.314;2023-09-08T11:54:33;8.55;;;7.63;;
20318;SDS011;10317;47.254;11.314;2023-09-08T11:57:00;13.88;;;10.02;;
20318;SDS011;10317;47.254;11.314;2023-09-08T11:59:27;9.05;;;7.45;;
20318;SDS011;10317;47.254;11.314;2023-09-08T12:01:55;8.38;;;7.57;;
20318;SDS011;10317;47.254;11.314;2023-09-08T12:04:22;8.60;;;7.32;;
20318;SDS011;10317;47.254;11.314;2023-09-08T12:06:48;8.10;;;7.07;;
20318;SDS011;10317;47.254;11.314;2023-09-08T12:09:14;8.90;;;7.20;;
20318;SDS011;10317;47.254;11.314;2023-09-08T12:11:41;7.55;;;6.72;;
20318;SDS011;10317;47.254;11.314;2023-09-08T12:14:08;9.10;;;7.15;;
20318;SDS011;10317;47.254;11.314;2023-09-08T12:16:37;9.70;;;7.00;;
20318;SDS011;10317;47.254;11.314;2023-09-08T12:19:04;7.45;;;6.65;;
20318;SDS011;10317;47.254;11.314;2023-09-08T12:21:31;8.35;;;7.13;;
20318;SDS011;10317;47.254;11.314;2023-09-08T12:23:57;7.72;;;6.70;;
20318;SDS011;10317;47.254;11.314;2023-09-08T12:26:26;6.38;;;5.72;;
20318;SDS011;10317;47.254;11.314;2023-09-08T12:28:52;9.52;;;6.38;;
20318;SDS011;10317;47.254;11.314;2023-09-08T12:31:18;7.53;;;6.47;;
20318;SDS011;10317;47.254;11.314;2023-09-08T12:33:44;7.28;;;6.57;;
20318;SDS011;10317;47.254;11.314;2023-09-08T12:36:17;8.48;;;6.63;;
20318;SDS011;10317;47.254;11.314;2023-09-08T12:38:47;7.90;;;6.18;;
20318;SDS011;10317;47.254;11.314;2023-09-08T12:41:15;6.85;;;6.13;;
20318;SDS011;10317;47.254;11.314;2023-09-08T12:43:41;7.53;;;6.05;;
20318;SDS011;10317;47.254;11.314;2023-09-08T12:46:06;7.05;;;6.05;;
20318;SDS011;10317;47.254;11.314;2023-09-08T12:48:32;8.63;;;6.30;;
20318;SDS011;10317;47.254;11.314;2023-09-08T12:50:58;7.30;;;5.78;;
20318;SDS011;10317;47.254;11.314;2023-09-08T12:53:24;7.25;;;5.47;;
20318;SDS011;10317;47.254;11.314;2023-09-08T12:55:50;7.60;;;5.35;;
20318;SDS011;10317;47.254;11.314;2023-09-08T12:58:16;6.30;;;4.93;;
20318;SDS011;10317;47.254;11.314;2023-09-08T13:00:44;5.97;;;5.38;;
20318;SDS011;10317;47.254;11.314;2023-09-08T13:03:10;5.28;;;4.78;;
20318;SDS011;10317;47.254;11.314;2023-09-08T13:05:36;5.45;;;4.95;;
20318;SDS011;10317;47.254;11.314;2023-09-08T13:08:03;7.55;;;5.43;;
20318;SDS011;10317;47.254;11.314;2023-09-08T13:10:29;7.88;;;5.22;;
20318;SDS011;10317;47.254;11.314;2023-09-08T13:12:55;6.00;;;5.03;;
20318;SDS011;10317;47.254;11.314;2023-09-08T13:15:21;6.05;;;5.40;;
20318;SDS011;10317;47.254;11.314;2023-09-08T13:17:48;6.22;;;5.63;;
20318;SDS011;10317;47.254;11.314;2023-09-08T13:20:13;5.90;;;5.38;;
20318;SDS011;10317;47.254;11.314;2023-09-08T13:22:39;6.10;;;5.50;;
20318;SDS011;10317;47.254;11.314;2023-09-08T13:25:05;5.50;;;4.97;;
20318;SDS011;10317;47.254;11.314;2023-09-08T13:27:31;6.20;;;5.57;;
20318;SDS011;10317;47.254;11.314;2023-09-08T13:30:12;6.05;;;5.45;;
20318;SDS011;10317;47.254;11.314;2023-09-08T13:32:39;5.72;;;5.22;;
20318;SDS011;10317;47.254;11.314;2023-09-08T13:35:06;6.00;;;5.45;;
20318;SDS011;10317;47.254;11.314;2023-09-08T13:37:32;9.15;;;5.85;;
20318;SDS011;10317;47.254;11.314;2023-09-08T13:39:59;6.80;;;5.97;;
20318;SDS011;10317;47.254;11.314;2023-09-08T13:42:25;6.47;;;5.88;;
20318;SDS011;10317;47.254;11.314;2023-09-08T13:44:51;8.43;;;6.55;;
20318;SDS011;10317;47.254;11.314;2023-09-08T13:47:17;6.25;;;5.65;;
20318;SDS011;10317;47.254;11.314;2023-09-08T13:49:42;7.93;;;6.70;;
20318;SDS011;10317;47.254;11.314;2023-09-08T13:52:08;7.88;;;6.38;;
20318;SDS011;10317;47.254;11.314;2023-09-08T13:54:34;7.03;;;6.40;;
20318;SDS011;10317;47.254;11.314;2023-09-08T13:57:00;7.32;;;6.22;;
20318;SDS011;10317;47.254;11.314;2023-09-08T13:59:27;6.65;;;6.03;;
20318;SDS011;10317;47.254;11.314;2023-09-08T14:01:54;8.73;;;5.72;;
20318;SDS011;10317;47.254;11.314;2023-09-08T14:04:20;8.07;;;6.05;;
20318;SDS011;10317;47.254;11.314;2023-09-08T14:06:46;6.55;;;5.88;;
20318;SDS011;10317;47.254;11.314;2023-09-08T14:09:12;6.60;;;5.90;;
20318;SDS011;10317;47.254;11.314;2023-09-08T14:11:38;7.03;;;6.32;;
20318;SDS011;10317;47.254;11.314;2023-09-08T14:14:03;8.10;;;6.20;;
20318;SDS011;10317;47.254;11.314;2023-09-08T14:16:29;8.55;;;6.38;;
20318;SDS011;10317;47.254;11.314;2023-09-08T14:18:55;7.97;;;5.80;;
20318;SDS011;10317;47.254;11.314;2023-09-08T14:21:20;6.47;;;5.88;;
20318;SDS011;10317;47.254;11.314;2023-09-08T14:23:46;8.32;;;5.55;;
20318;SDS011;10317;47.254;11.314;2023-09-08T14:26:12;6.25;;;5.65;;
20318;SDS011;10317;47.254;11.314;2023-09-08T14:28:38;6.90;;;5.88;;
20318;SDS011;10317;47.254;11.314;2023-09-08T14:31:04;6.05;;;5.45;;
20318;SDS011;10317;47.254;11.314;2023-09-08T14:33:29;6.22;;;5.63;;
20318;SDS011;10317;47.254;11.314;2023-09-08T14:35:55;10.20;;;6.88;;
20318;SDS011;10317;47.254;11.314;2023-09-08T14:38:22;7.43;;;6.15;;
20318;SDS011;10317;47.254;11.314;2023-09-08T14:40:58;8.13;;;5.75;;